sensor_id;sensor_type;location;lat;lon;timestamp;pressure;altitude;pressure_sealevel;temperature;humidity
29433;BME280;16405;53.964;13.448;2024-02-26T00:01:42;100096.00;;;2.15;81.07
29433;BME280;16405;53.964;13.448;2024-02-26T00:04:28;100109.16;;;2.08;80.80
29433;BME280;16405;53.964;13.448;2024-02-26T00:06:56;100108.28;;;2.07;81.00
29433;BME280;16405;53.964;13.448;2024-02-26T00:09:50;100105.75;;;2.05;81.08
29433;BME280;16405;53.964;13.448;2024-02-26T00:12:16;100094.47;;;2.05;81.24
29433;BME280;16405;53.964;13.448;2024-02-26T00:14:42;100100.56;;;2.05;81.46
29433;BME280;16405;53.964;13.448;2024-02-26T00:17:16;100097.13;;;2.03;81.46
29433;BME280;16405;53.964;13.448;2024-02-26T00:19:47;100085.94;;;2.01;81.36
29433;BME280;16405;53.964;13.448;2024-02-26T00:22:12;100076.50;;;1.96;81.06
29433;BME280;16405;53.964;13.448;2024-02-26T00:25:21;100086.03;;;1.97;81.35
29433;BME280;16405;53.964;13.448;2024-02-26T00:27:47;100087.72;;;1.98;81.61
29433;BME280;16405;53.964;13.448;2024-02-26T00:30:22;100087.75;;;1.96;82.31
29433;BME280;16405;53.964;13.448;2024-02-26T00:33:07;100083.47;;;1.95;82.79
29433;BME280;16405;53.964;13.448;2024-02-26T00:36:32;100089.50;;;1.96;82.74
29433;BME280;16405;53.964;13.448;2024-02-26T00:39:27;100094.78;;;1.93;83.50
29433;BME280;16405;53.964;13.448;2024-02-26T00:45:20;100081.94;;;1.85;83.71
29433;BME280;16405;53.964;13.448;2024-02-26T00:47:46;100089.75;;;1.83;84.12
29433;BME280;16405;53.964;13.448;2024-02-26T00:50:14;100092.41;;;1.82;84.01
29433;BME280;16405;53.964;13.448;2024-02-26T00:53:21;100093.25;;;1.82;84.28
29433;BME280;16405;53.964;13.448;2024-02-26T00:55:48;100090.78;;;1.75;84.09
29433;BME280;16405;53.964;13.448;2024-02-26T00:59:08;100093.38;;;1.76;84.45
29433;BME280;16405;53.964;13.448;2024-02-26T01:01:40;100088.28;;;1.70;84.37
29433;BME280;16405;53.964;13.448;2024-02-26T01:07:17;100086.69;;;1.64;84.52
29433;BME280;16405;53.964;13.448;2024-02-26T01:13:39;100086.78;;;1.60;85.10
29433;BME280;16405;53.964;13.448;2024-02-26T01:16:50;100079.03;;;1.58;85.12
29433;BME280;16405;53.964;13.448;2024-02-26T01:19:17;100079.97;;;1.54;85.45
29433;BME280;16405;53.964;13.448;2024-02-26T01:22:07;100082.56;;;1.54;86.20
29433;BME280;16405;53.964;13.448;2024-02-26T01:25:09;100093.78;;;1.55;86.45
29433;BME280;16405;53.964;13.448;2024-02-26T01:27:47;100098.06;;;1.57;87.28
29433;BME280;16405;53.964;13.448;2024-02-26T01:33:26;100088.41;;;1.66;87.84
29433;BME280;16405;53.964;13.448;2024-02-26T01:36:18;100096.16;;;1.67;87.67
29433;BME280;16405;53.964;13.448;2024-02-26T01:38:59;100092.00;;;1.58;87.55
29433;BME280;16405;53.964;13.448;2024-02-26T01:45:15;100089.88;;;1.34;86.06
29433;BME280;16405;53.964;13.448;2024-02-26T01:47:58;100093.47;;;1.27;85.64
29433;BME280;16405;53.964;13.448;2024-02-26T01:54:08;100078.94;;;0.68;84.15
29433;BME280;16405;53.964;13.448;2024-02-26T01:56:49;100076.69;;;0.45;83.26
29433;BME280;16405;53.964;13.448;2024-02-26T02:00:06;100080.41;;;0.30;83.44
29433;BME280;16405;53.964;13.448;2024-02-26T02:03:29;100077.91;;;0.23;83.88
29433;BME280;16405;53.964;13.448;2024-02-26T02:06:11;100068.47;;;0.18;84.41
29433;BME280;16405;53.964;13.448;2024-02-26T02:12:47;100070.22;;;0.19;84.93
29433;BME280;16405;53.964;13.448;2024-02-26T02:15:32;100066.72;;;0.22;85.43
29433;BME280;16405;53.964;13.448;2024-02-26T02:18:28;100070.06;;;0.27;85.09
29433;BME280;16405;53.964;13.448;2024-02-26T02:23:29;100067.50;;;0.26;85.65
29433;BME280;16405;53.964;13.448;2024-02-26T02:26:08;100069.22;;;0.27;85.69
29433;BME280;16405;53.964;13.448;2024-02-26T02:28:47;100071.00;;;0.25;85.58
29433;BME280;16405;53.964;13.448;2024-02-26T02:31:57;100077.16;;;0.17;85.57
29433;BME280;16405;53.964;13.448;2024-02-26T02:34:40;100066.81;;;0.14;85.40
29433;BME280;16405;53.964;13.448;2024-02-26T02:37:09;100071.22;;;0.08;85.37
29433;BME280;16405;53.964;13.448;2024-02-26T02:39:47;100075.56;;;0.04;85.38
29433;BME280;16405;53.964;13.448;2024-02-26T02:42:39;100079.13;;;-0.03;85.38
29433;BME280;16405;53.964;13.448;2024-02-26T02:45:09;100067.16;;;-0.10;85.29
29433;BME280;16405;53.964;13.448;2024-02-26T02:47:59;100068.91;;;-0.12;85.54
29433;BME280;16405;53.964;13.448;2024-02-26T02:50:40;100073.19;;;-0.11;85.02
29433;BME280;16405;53.964;13.448;2024-02-26T02:53:19;100076.66;;;-0.11;85.24
29433;BME280;16405;53.964;13.448;2024-02-26T02:55:48;100072.28;;;-0.07;86.02
29433;BME280;16405;53.964;13.448;2024-02-26T03:01:57;100085.06;;;0.05;87.23
29433;BME280;16405;53.964;13.448;2024-02-26T03:07:48;100088.50;;;0.07;87.52
29433;BME280;16405;53.964;13.448;2024-02-26T03:17:57;100100.47;;;0.16;88.44
29433;BME280;16405;53.964;13.448;2024-02-26T03:20:49;100111.66;;;0.16;88.71
29433;BME280;16405;53.964;13.448;2024-02-26T03:23:27;100101.31;;;0.16;89.22
29433;BME280;16405;53.964;13.448;2024-02-26T03:26:29;100093.56;;;0.15;89.16
29433;BME280;16405;53.964;13.448;2024-02-26T03:29:09;100099.69;;;0.09;88.86
29433;BME280;16405;53.964;13.448;2024-02-26T03:32:30;100094.59;;;0.03;89.03
29433;BME280;16405;53.964;13.448;2024-02-26T03:34:58;100095.50;;;-0.03;89.23
29433;BME280;16405;53.964;13.448;2024-02-26T03:41:19;100109.56;;;-0.21;88.06
29433;BME280;16405;53.964;13.448;2024-02-26T03:43:59;100117.44;;;-0.30;88.05
29433;BME280;16405;53.964;13.448;2024-02-26T03:47:18;100104.63;;;-0.42;87.81
29433;BME280;16405;53.964;13.448;2024-02-26T03:53:40;100101.50;;;-0.69;86.90
29433;BME280;16405;53.964;13.448;2024-02-26T03:56:19;100105.00;;;-0.74;86.29
29433;BME280;16405;53.964;13.448;2024-02-26T03:58:58;100106.72;;;-0.75;86.78
29433;BME280;16405;53.964;13.448;2024-02-26T04:04:49;100113.53;;;-0.68;87.30
29433;BME280;16405;53.964;13.448;2024-02-26T04:07:46;100113.53;;;-0.66;88.25
29433;BME280;16405;53.964;13.448;2024-02-26T04:10:13;100122.97;;;-0.64;88.03
29433;BME280;16405;53.964;13.448;2024-02-26T04:13:09;100119.53;;;-0.64;88.42
29433;BME280;16405;53.964;13.448;2024-02-26T04:19:30;100119.56;;;-0.66;88.87
29433;BME280;16405;53.964;13.448;2024-02-26T04:22:07;100125.56;;;-0.65;88.61
29433;BME280;16405;53.964;13.448;2024-02-26T04:24:48;100130.75;;;-0.65;88.85
29433;BME280;16405;53.964;13.448;2024-02-26T04:27:47;100121.28;;;-0.65;89.07
29433;BME280;16405;53.964;13.448;2024-02-26T04:33:25;100133.31;;;-0.65;89.65
29433;BME280;16405;53.964;13.448;2024-02-26T04:36:01;100131.63;;;-0.68;89.67
29433;BME280;16405;53.964;13.448;2024-02-26T04:38:30;100131.63;;;-0.68;89.68
29433;BME280;16405;53.964;13.448;2024-02-26T04:41:09;100130.78;;;-0.70;89.53
29433;BME280;16405;53.964;13.448;2024-02-26T04:44:03;100135.09;;;-0.69;90.16
29433;BME280;16405;53.964;13.448;2024-02-26T04:47:10;100132.47;;;-0.67;90.50
29433;BME280;16405;53.964;13.448;2024-02-26T04:49:40;100147.94;;;-0.61;89.96
29433;BME280;16405;53.964;13.448;2024-02-26T04:52:37;100150.50;;;-0.58;90.41
29433;BME280;16405;53.964;13.448;2024-02-26T04:55:12;100159.13;;;-0.60;90.63
29433;BME280;16405;53.964;13.448;2024-02-26T04:58:27;100162.66;;;-0.69;90.91
29433;BME280;16405;53.964;13.448;2024-02-26T05:01:19;100155.16;;;-0.92;90.32
29433;BME280;16405;53.964;13.448;2024-02-26T05:03:48;100169.91;;;-1.07;90.24
29433;BME280;16405;53.964;13.448;2024-02-26T05:10:12;100161.41;;;-1.26;88.95
29433;BME280;16405;53.964;13.448;2024-02-26T05:13:10;100157.16;;;-1.30;89.01
29433;BME280;16405;53.964;13.448;2024-02-26T05:15:47;100168.34;;;-1.29;89.78
29433;BME280;16405;53.964;13.448;2024-02-26T05:18:41;100174.34;;;-1.26;89.80
29433;BME280;16405;53.964;13.448;2024-02-26T05:21:09;100176.03;;;-1.21;89.78
29433;BME280;16405;53.964;13.448;2024-02-26T05:24:00;100173.41;;;-1.15;90.73
29433;BME280;16405;53.964;13.448;2024-02-26T05:27:10;100176.84;;;-1.12;90.92
29433;BME280;16405;53.964;13.448;2024-02-26T05:33:20;100199.16;;;-1.05;91.91
29433;BME280;16405;53.964;13.448;2024-02-26T05:36:00;100200.88;;;-1.00;92.33
29433;BME280;16405;53.964;13.448;2024-02-26T05:38:29;100205.16;;;-0.99;92.15
29433;BME280;16405;53.964;13.448;2024-02-26T05:41:40;100212.03;;;-0.97;92.71
29433;BME280;16405;53.964;13.448;2024-02-26T05:44:30;100215.47;;;-0.99;92.26
29433;BME280;16405;53.964;13.448;2024-02-26T05:46:59;100210.31;;;-0.98;91.92
29433;BME280;16405;53.964;13.448;2024-02-26T05:49:40;100220.63;;;-0.93;92.58
29433;BME280;16405;53.964;13.448;2024-02-26T05:52:18;100234.41;;;-0.93;92.26
29433;BME280;16405;53.964;13.448;2024-02-26T05:54:58;100237.00;;;-0.93;92.76
29433;BME280;16405;53.964;13.448;2024-02-26T06:00:51;100249.06;;;-0.95;92.68
29433;BME280;16405;53.964;13.448;2024-02-26T06:04:02;100255.09;;;-0.96;92.39
29433;BME280;16405;53.964;13.448;2024-02-26T06:10:12;100262.91;;;-1.05;92.56
29433;BME280;16405;53.964;13.448;2024-02-26T06:12:48;100264.69;;;-1.12;92.46
29433;BME280;16405;53.964;13.448;2024-02-26T06:15:31;100269.00;;;-1.17;91.59
29433;BME280;16405;53.964;13.448;2024-02-26T06:18:09;100267.31;;;-1.21;91.81
29433;BME280;16405;53.964;13.448;2024-02-26T06:23:58;100277.59;;;-1.13;92.70
29433;BME280;16405;53.964;13.448;2024-02-26T06:26:27;100281.00;;;-1.07;92.49
29433;BME280;16405;53.964;13.448;2024-02-26T06:29:06;100280.97;;;-1.00;92.12
29433;BME280;16405;53.964;13.448;2024-02-26T06:31:32;100275.78;;;-0.93;92.47
29433;BME280;16405;53.964;13.448;2024-02-26T06:37:16;100291.13;;;-0.73;93.30
29433;BME280;16405;53.964;13.448;2024-02-26T06:39:42;100288.50;;;-0.67;93.53
29433;BME280;16405;53.964;13.448;2024-02-26T06:42:13;100285.88;;;-0.62;93.56
29433;BME280;16405;53.964;13.448;2024-02-26T06:44:48;100293.56;;;-0.51;93.34
29433;BME280;16405;53.964;13.448;2024-02-26T06:47:16;100293.50;;;-0.48;94.19
29433;BME280;16405;53.964;13.448;2024-02-26T06:49:51;100297.75;;;-0.39;93.77
29433;BME280;16405;53.964;13.448;2024-02-26T06:52:17;100300.28;;;-0.35;94.07
29433;BME280;16405;53.964;13.448;2024-02-26T06:55:10;100303.69;;;-0.27;93.62
29433;BME280;16405;53.964;13.448;2024-02-26T06:58:08;100315.69;;;-0.19;93.76
29433;BME280;16405;53.964;13.448;2024-02-26T07:00:37;100312.19;;;-0.11;94.27
29433;BME280;16405;53.964;13.448;2024-02-26T07:03:32;100318.09;;;-0.01;94.26
29433;BME280;16405;53.964;13.448;2024-02-26T07:06:11;100318.00;;;0.11;94.17
29433;BME280;16405;53.964;13.448;2024-02-26T07:09:02;100326.50;;;0.23;94.41
29433;BME280;16405;53.964;13.448;2024-02-26T07:12:04;100339.34;;;0.33;94.56
29433;BME280;16405;53.964;13.448;2024-02-26T07:17:52;100340.78;;;0.57;95.08
29433;BME280;16405;53.964;13.448;2024-02-26T07:20:18;100339.81;;;0.66;95.36
29433;BME280;16405;53.964;13.448;2024-02-26T07:26:09;100333.59;;;0.81;95.90
29433;BME280;16405;53.964;13.448;2024-02-26T07:29:20;100343.97;;;0.79;96.10
29433;BME280;16405;53.964;13.448;2024-02-26T07:31:49;100343.06;;;0.84;96.02
29433;BME280;16405;53.964;13.448;2024-02-26T07:34:30;100342.06;;;0.92;96.06
29433;BME280;16405;53.964;13.448;2024-02-26T07:37:19;100347.03;;;1.09;96.29
29433;BME280;16405;53.964;13.448;2024-02-26T07:42:58;100357.78;;;1.43;96.81
29433;BME280;16405;53.964;13.448;2024-02-26T07:45:25;100346.31;;;1.60;96.79
29433;BME280;16405;53.964;13.448;2024-02-26T07:53:40;100357.50;;;2.13;97.34
29433;BME280;16405;53.964;13.448;2024-02-26T07:56:51;100371.78;;;2.37;97.80
29433;BME280;16405;53.964;13.448;2024-02-26T07:59:29;100378.31;;;2.60;98.14
29433;BME280;16405;53.964;13.448;2024-02-26T08:02:08;100384.00;;;2.79;98.47
29433;BME280;16405;53.964;13.448;2024-02-26T08:08:48;100389.06;;;3.27;98.94
29433;BME280;16405;53.964;13.448;2024-02-26T08:15:01;100395.34;;;3.56;98.61
29433;BME280;16405;53.964;13.448;2024-02-26T08:25:18;100397.66;;;4.04;98.19
29433;BME280;16405;53.964;13.448;2024-02-26T08:27:59;100400.81;;;4.17;97.82
29433;BME280;16405;53.964;13.448;2024-02-26T08:39:11;100409.38;;;4.87;97.89
29433;BME280;16405;53.964;13.448;2024-02-26T08:41:39;100410.81;;;4.99;97.79
29433;BME280;16405;53.964;13.448;2024-02-26T09:17:49;100447.31;;;7.85;90.92
29433;BME280;16405;53.964;13.448;2024-02-26T09:20:21;100442.00;;;8.08;89.67
29433;BME280;16405;53.964;13.448;2024-02-26T09:23:17;100448.13;;;8.29;86.40
29433;BME280;16405;53.964;13.448;2024-02-26T09:26:07;100463.88;;;8.51;84.96
29433;BME280;16405;53.964;13.448;2024-02-26T09:28:50;100461.28;;;8.70;82.37
29433;BME280;16405;53.964;13.448;2024-02-26T09:33:52;100475.16;;;9.13;79.96
29433;BME280;16405;53.964;13.448;2024-02-26T09:36:18;100470.66;;;9.36;79.33
29433;BME280;16405;53.964;13.448;2024-02-26T09:39:34;100481.31;;;9.52;76.86
29433;BME280;16405;53.964;13.448;2024-02-26T09:42:39;100478.91;;;9.66;75.07
29433;BME280;16405;53.964;13.448;2024-02-26T09:45:22;100491.50;;;9.78;74.08
29433;BME280;16405;53.964;13.448;2024-02-26T10:02:28;100500.44;;;9.55;71.46
29433;BME280;16405;53.964;13.448;2024-02-26T10:05:39;100499.56;;;9.36;71.20
29433;BME280;16405;53.964;13.448;2024-02-26T10:12:03;100503.09;;;9.35;71.55
29433;BME280;16405;53.964;13.448;2024-02-26T10:14:45;100510.19;;;9.33;71.03
29433;BME280;16405;53.964;13.448;2024-02-26T10:17:23;100516.25;;;9.35;71.25
29433;BME280;16405;53.964;13.448;2024-02-26T10:20:30;100514.28;;;9.40;71.50
29433;BME280;16405;53.964;13.448;2024-02-26T10:30:41;100524.59;;;9.63;71.46
29433;BME280;16405;53.964;13.448;2024-02-26T10:37:23;100537.03;;;9.98;69.93
29433;BME280;16405;53.964;13.448;2024-02-26T10:40:30;100540.84;;;10.10;69.09
29433;BME280;16405;53.964;13.448;2024-02-26T10:46:41;100537.50;;;10.25;68.73
29433;BME280;16405;53.964;13.448;2024-02-26T11:21:38;100564.97;;;9.81;67.79
29433;BME280;16405;53.964;13.448;2024-02-26T11:24:14;100563.84;;;9.87;68.25
29433;BME280;16405;53.964;13.448;2024-02-26T11:27:00;100567.31;;;10.06;68.33
29433;BME280;16405;53.964;13.448;2024-02-26T11:29:42;100565.25;;;10.13;67.73
29433;BME280;16405;53.964;13.448;2024-02-26T11:32:20;100565.38;;;9.91;67.88
29433;BME280;16405;53.964;13.448;2024-02-26T11:34:49;100570.25;;;10.00;68.06
29433;BME280;16405;53.964;13.448;2024-02-26T11:37:24;100577.47;;;10.14;67.66
29433;BME280;16405;53.964;13.448;2024-02-26T11:39:59;100582.94;;;10.29;67.54
29433;BME280;16405;53.964;13.448;2024-02-26T11:42:34;100586.78;;;10.40;66.81
29433;BME280;16405;53.964;13.448;2024-02-26T11:48:03;100603.22;;;10.45;66.42
29433;BME280;16405;53.964;13.448;2024-02-26T11:50:40;100590.75;;;10.49;66.75
29433;BME280;16405;53.964;13.448;2024-02-26T11:53:32;100591.63;;;10.50;66.48
29433;BME280;16405;53.964;13.448;2024-02-26T11:58:45;100602.00;;;10.53;66.09
29433;BME280;16405;53.964;13.448;2024-02-26T12:01:43;100597.63;;;10.52;67.04
29433;BME280;16405;53.964;13.448;2024-02-26T12:06:51;100611.53;;;10.36;65.09
29433;BME280;16405;53.964;13.448;2024-02-26T12:09:41;100609.13;;;10.32;65.39
29433;BME280;16405;53.964;13.448;2024-02-26T12:12:18;100603.88;;;10.32;65.53
29433;BME280;16405;53.964;13.448;2024-02-26T12:14:56;100609.69;;;10.38;66.15
29433;BME280;16405;53.964;13.448;2024-02-26T12:17:25;100611.97;;;10.46;66.22
29433;BME280;16405;53.964;13.448;2024-02-26T12:20:13;100612.47;;;10.54;66.13
29433;BME280;16405;53.964;13.448;2024-02-26T12:22:46;100614.09;;;10.57;65.53
29433;BME280;16405;53.964;13.448;2024-02-26T12:25:25;100618.69;;;10.52;65.71
29433;BME280;16405;53.964;13.448;2024-02-26T12:28:15;100619.72;;;10.49;64.97
29433;BME280;16405;53.964;13.448;2024-02-26T12:30:40;100616.38;;;10.45;65.43
29433;BME280;16405;53.964;13.448;2024-02-26T12:33:06;100618.03;;;10.48;65.43
29433;BME280;16405;53.964;13.448;2024-02-26T12:35:42;100620.50;;;10.51;65.14
29433;BME280;16405;53.964;13.448;2024-02-26T12:38:09;100629.94;;;10.55;65.02
29433;BME280;16405;53.964;13.448;2024-02-26T12:40:35;100632.03;;;10.49;64.26
29433;BME280;16405;53.964;13.448;2024-02-26T12:43:01;100631.03;;;10.51;64.42
29433;BME280;16405;53.964;13.448;2024-02-26T12:45:39;100630.09;;;10.52;64.04
29433;BME280;16405;53.964;13.448;2024-02-26T12:48:05;100635.59;;;10.48;64.23
29433;BME280;16405;53.964;13.448;2024-02-26T12:50:36;100643.69;;;10.43;64.24
29433;BME280;16405;53.964;13.448;2024-02-26T12:53:02;100641.78;;;10.46;64.61
29433;BME280;16405;53.964;13.448;2024-02-26T12:55:28;100648.59;;;10.51;64.76
29433;BME280;16405;53.964;13.448;2024-02-26T12:57:54;100651.22;;;10.51;64.08
29433;BME280;16405;53.964;13.448;2024-02-26T13:00:27;100653.81;;;10.52;64.06
29433;BME280;16405;53.964;13.448;2024-02-26T13:02:54;100654.66;;;10.53;63.88
29433;BME280;16405;53.964;13.448;2024-02-26T13:05:21;100659.34;;;10.46;63.91
29433;BME280;16405;53.964;13.448;2024-02-26T13:07:48;100657.63;;;10.45;63.50
29433;BME280;16405;53.964;13.448;2024-02-26T13:10:17;100657.44;;;10.50;64.10
29433;BME280;16405;53.964;13.448;2024-02-26T13:12:48;100665.34;;;10.50;64.19
29433;BME280;16405;53.964;13.448;2024-02-26T13:15:28;100671.34;;;10.52;63.46
29433;BME280;16405;53.964;13.448;2024-02-26T13:17:54;100667.19;;;10.48;62.54
29433;BME280;16405;53.964;13.448;2024-02-26T13:20:29;100664.34;;;10.52;63.79
29433;BME280;16405;53.964;13.448;2024-02-26T13:23:14;100678.13;;;10.57;63.28
29433;BME280;16405;53.964;13.448;2024-02-26T13:25:40;100679.97;;;10.55;62.94
29433;BME280;16405;53.964;13.448;2024-02-26T13:28:17;100678.97;;;10.58;63.18
29433;BME280;16405;53.964;13.448;2024-02-26T13:30:54;100675.56;;;10.56;62.69
29433;BME280;16405;53.964;13.448;2024-02-26T13:33:27;100679.13;;;10.55;62.77
29433;BME280;16405;53.964;13.448;2024-02-26T13:35:58;100683.53;;;10.54;62.63
29433;BME280;16405;53.964;13.448;2024-02-26T13:38:24;100686.25;;;10.53;62.39
29433;BME280;16405;53.964;13.448;2024-02-26T13:40:51;100698.63;;;10.51;62.23
29433;BME280;16405;53.964;13.448;2024-02-26T13:43:18;100692.50;;;10.50;63.34
29433;BME280;16405;53.964;13.448;2024-02-26T13:45:49;100690.22;;;10.42;63.23
29433;BME280;16405;53.964;13.448;2024-02-26T13:48:14;100691.06;;;10.24;63.30
29433;BME280;16405;53.964;13.448;2024-02-26T13:50:44;100692.75;;;10.25;63.14
29433;BME280;16405;53.964;13.448;2024-02-26T13:53:11;100692.13;;;10.20;63.92
29433;BME280;16405;53.964;13.448;2024-02-26T13:55:41;100692.75;;;10.25;64.90
29433;BME280;16405;53.964;13.448;2024-02-26T13:58:13;100690.00;;;10.28;64.53
29433;BME280;16405;53.964;13.448;2024-02-26T14:00:49;100689.81;;;10.33;64.48
29433;BME280;16405;53.964;13.448;2024-02-26T14:03:15;100687.84;;;10.17;64.13
29433;BME280;16405;53.964;13.448;2024-02-26T14:05:45;100691.53;;;10.13;64.77
29433;BME280;16405;53.964;13.448;2024-02-26T14:08:13;100682.78;;;9.94;65.21
29433;BME280;16405;53.964;13.448;2024-02-26T14:10:39;100680.03;;;9.76;65.66
29433;BME280;16405;53.964;13.448;2024-02-26T14:13:05;100683.25;;;9.62;65.82
29433;BME280;16405;53.964;13.448;2024-02-26T14:15:33;100668.09;;;9.49;66.61
29433;BME280;16405;53.964;13.448;2024-02-26T14:18:03;100669.97;;;9.45;67.84
29433;BME280;16405;53.964;13.448;2024-02-26T14:20:31;100669.06;;;9.26;69.58
29433;BME280;16405;53.964;13.448;2024-02-26T14:22:57;100668.16;;;9.04;70.23
29433;BME280;16405;53.964;13.448;2024-02-26T14:25:23;100658.63;;;8.81;71.35
29433;BME280;16405;53.964;13.448;2024-02-26T14:27:49;100670.50;;;8.90;71.85
29433;BME280;16405;53.964;13.448;2024-02-26T14:30:20;100664.22;;;8.72;72.93
29433;BME280;16405;53.964;13.448;2024-02-26T14:32:45;100666.91;;;8.71;72.94
29433;BME280;16405;53.964;13.448;2024-02-26T14:35:13;100664.63;;;8.61;73.13
29433;BME280;16405;53.964;13.448;2024-02-26T14:37:39;100659.94;;;8.48;73.28
29433;BME280;16405;53.964;13.448;2024-02-26T14:40:15;100657.50;;;8.43;73.25
29433;BME280;16405;53.964;13.448;2024-02-26T14:42:41;100656.84;;;8.36;73.24
29433;BME280;16405;53.964;13.448;2024-02-26T14:45:08;100650.00;;;8.32;74.06
29433;BME280;16405;53.964;13.448;2024-02-26T14:47:43;100657.84;;;8.34;74.25
29433;BME280;16405;53.964;13.448;2024-02-26T14:50:10;100648.63;;;8.22;74.80
29433;BME280;16405;53.964;13.448;2024-02-26T14:55:12;100656.63;;;8.19;74.55
29433;BME280;16405;53.964;13.448;2024-02-26T14:57:50;100657.72;;;8.13;72.63
29433;BME280;16405;53.964;13.448;2024-02-26T15:00:19;100659.03;;;8.01;72.72
29433;BME280;16405;53.964;13.448;2024-02-26T15:06:11;100657.88;;;7.85;73.20
29433;BME280;16405;53.964;13.448;2024-02-26T15:09:41;100654.03;;;7.70;73.77
29433;BME280;16405;53.964;13.448;2024-02-26T15:12:14;100662.84;;;7.69;74.48
29433;BME280;16405;53.964;13.448;2024-02-26T15:14:45;100663.81;;;7.67;74.65
29433;BME280;16405;53.964;13.448;2024-02-26T15:17:20;100665.66;;;7.63;75.06
29433;BME280;16405;53.964;13.448;2024-02-26T15:19:49;100670.34;;;7.53;75.60
29433;BME280;16405;53.964;13.448;2024-02-26T15:22:24;100672.88;;;7.56;74.87
29433;BME280;16405;53.964;13.448;2024-02-26T15:25:00;100672.53;;;7.40;75.93
29433;BME280;16405;53.964;13.448;2024-02-26T15:27:29;100672.53;;;7.40;76.15
29433;BME280;16405;53.964;13.448;2024-02-26T15:30:07;100684.19;;;7.32;76.40
29433;BME280;16405;53.964;13.448;2024-02-26T15:32:33;100679.47;;;7.16;75.88
29433;BME280;16405;53.964;13.448;2024-02-26T15:34:59;100689.78;;;7.21;76.80
29433;BME280;16405;53.964;13.448;2024-02-26T15:37:25;100690.78;;;7.17;76.81
29433;BME280;16405;53.964;13.448;2024-02-26T15:40:00;100696.09;;;7.15;77.03
29433;BME280;16405;53.964;13.448;2024-02-26T15:42:26;100688.47;;;7.08;77.40
29433;BME280;16405;53.964;13.448;2024-02-26T15:48:02;100702.84;;;6.96;77.62
29433;BME280;16405;53.964;13.448;2024-02-26T15:50:40;100702.34;;;6.85;77.44
29433;BME280;16405;53.964;13.448;2024-02-26T15:53:08;100698.75;;;6.87;77.80
29433;BME280;16405;53.964;13.448;2024-02-26T15:55:49;100714.53;;;6.84;78.32
29433;BME280;16405;53.964;13.448;2024-02-26T15:58:21;100712.09;;;6.78;77.87
29433;BME280;16405;53.964;13.448;2024-02-26T16:00:50;100714.97;;;6.70;78.18
29433;BME280;16405;53.964;13.448;2024-02-26T16:03:16;100716.78;;;6.68;78.05
29433;BME280;16405;53.964;13.448;2024-02-26T16:05:51;100716.09;;;6.63;78.31
29433;BME280;16405;53.964;13.448;2024-02-26T16:08:22;100724.03;;;6.58;78.63
29433;BME280;16405;53.964;13.448;2024-02-26T16:10:57;100719.06;;;6.51;79.13
29433;BME280;16405;53.964;13.448;2024-02-26T16:13:26;100723.66;;;6.43;79.01
29433;BME280;16405;53.964;13.448;2024-02-26T16:16:27;100723.09;;;6.33;79.44
29433;BME280;16405;53.964;13.448;2024-02-26T16:19:14;100729.22;;;6.30;79.68
29433;BME280;16405;53.964;13.448;2024-02-26T16:21:50;100727.00;;;6.18;80.47
29433;BME280;16405;53.964;13.448;2024-02-26T17:04:35;100778.56;;;5.44;84.59
29433;BME280;16405;53.964;13.448;2024-02-26T17:07:24;100793.69;;;5.30;84.52
29433;BME280;16405;53.964;13.448;2024-02-26T17:09:53;100792.31;;;5.13;84.51
29433;BME280;16405;53.964;13.448;2024-02-26T17:12:20;100790.75;;;5.06;85.22
29433;BME280;16405;53.964;13.448;2024-02-26T17:14:53;100797.91;;;4.97;85.70
29433;BME280;16405;53.964;13.448;2024-02-26T17:17:21;100796.38;;;4.88;85.98
29433;BME280;16405;53.964;13.448;2024-02-26T17:19:47;100801.59;;;4.88;86.09
29433;BME280;16405;53.964;13.448;2024-02-26T17:22:22;100801.69;;;4.83;86.16
29433;BME280;16405;53.964;13.448;2024-02-26T17:24:53;100801.75;;;4.82;86.20
29433;BME280;16405;53.964;13.448;2024-02-26T17:27:25;100807.00;;;4.79;86.35
29433;BME280;16405;53.964;13.448;2024-02-26T17:29:51;100800.13;;;4.75;86.60
29433;BME280;16405;53.964;13.448;2024-02-26T17:32:17;100806.31;;;4.70;86.62
29433;BME280;16405;53.964;13.448;2024-02-26T17:34:42;100804.69;;;4.65;86.66
29433;BME280;16405;53.964;13.448;2024-02-26T17:37:08;100801.38;;;4.58;87.33
29433;BME280;16405;53.964;13.448;2024-02-26T17:39:46;100799.72;;;4.54;87.76
29433;BME280;16405;53.964;13.448;2024-02-26T17:42:12;100797.09;;;4.54;87.84
29433;BME280;16405;53.964;13.448;2024-02-26T17:44:47;100804.00;;;4.57;88.01
29433;BME280;16405;53.964;13.448;2024-02-26T17:47:13;100806.69;;;4.54;87.97
29433;BME280;16405;53.964;13.448;2024-02-26T17:49:39;100798.88;;;4.52;87.86
29433;BME280;16405;53.964;13.448;2024-02-26T17:52:05;100805.03;;;4.49;87.62
29433;BME280;16405;53.964;13.448;2024-02-26T17:54:40;100806.84;;;4.44;87.83
29433;BME280;16405;53.964;13.448;2024-02-26T17:57:11;100803.41;;;4.42;88.77
29433;BME280;16405;53.964;13.448;2024-02-26T17:59:45;100796.69;;;4.30;88.79
29433;BME280;16405;53.964;13.448;2024-02-26T18:02:11;100800.09;;;4.34;89.16
29433;BME280;16405;53.964;13.448;2024-02-26T18:04:37;100805.44;;;4.28;89.13
29433;BME280;16405;53.964;13.448;2024-02-26T18:07:13;100819.25;;;4.33;89.38
29433;BME280;16405;53.964;13.448;2024-02-26T18:09:39;100811.59;;;4.24;89.21
29433;BME280;16405;53.964;13.448;2024-02-26T18:12:35;100819.63;;;4.13;89.86
29433;BME280;16405;53.964;13.448;2024-02-26T18:15:10;100823.91;;;4.16;90.83
29433;BME280;16405;53.964;13.448;2024-02-26T18:17:39;100814.50;;;4.08;90.71
29433;BME280;16405;53.964;13.448;2024-02-26T18:20:17;100817.06;;;4.10;91.02